Time;durP1;ratioP1;P1;durP2;ratioP2;P2;SDS_P1;SDS_P2;PMS_P1;PMS_P2;Temp;Humidity;BMP_temperature;BMP_pressure;BME280_temperature;BME280_humidity;BME280_pressure;Samples;Min_cycle;Max_cycle;Signal;HPM_P1;HPM_P2
2022/05/13 00:02:08;;;;;;;7.65;2.05;;;13.10;99.90;;;;;;5069434;28;20048;-67
2022/05/13 00:04:34;;;;;;;8.30;2.78;;;13.10;99.90;;;;;;5085345;28;20226;-68
2022/05/13 00:07:00;;;;;;;8.77;2.05;;;13.10;99.90;;;;;;5080858;28;20894;-67
2022/05/13 00:09:56;;;;;;;4.35;2.10;;;13.10;99.90;;;;;;5081732;28;20127;-67
2022/05/13 00:12:13;;;;;;;6.50;1.77;;;13.10;99.90;;;;;;5080814;28;20460;-67
2022/05/13 00:14:39;;;;;;;6.20;2.40;;;13.10;99.90;;;;;;5077271;28;20110;-67
2022/05/13 00:17:05;;;;;;;8.85;2.35;;;13.10;99.90;;;;;;5083454;28;20215;-67
2022/05/13 00:19:31;;;;;;;8.43;2.15;;;13.10;99.90;;;;;;5080493;28;20150;-67
2022/05/13 00:21:57;;;;;;;7.93;2.22;;;13.10;99.90;;;;;;5055164;28;20097;-67
2022/05/13 00:24:22;;;;;;;7.15;2.45;;;13.10;99.90;;;;;;5046155;28;20311;-67
2022/05/13 00:26:48;;;;;;;4.25;2.08;;;13.10;99.90;;;;;;5082732;28;20123;-67
2022/05/13 00:29:14;;;;;;;4.93;2.27;;;13.10;99.90;;;;;;5082804;28;20036;-67
2022/05/13 00:31:39;;;;;;;10.00;2.30;;;13.10;99.90;;;;;;5079689;28;20102;-67
2022/05/13 00:34:05;;;;;;;7.70;2.00;;;13.10;99.90;;;;;;5084714;28;20043;-67
2022/05/13 00:36:30;;;;;;;5.43;2.50;;;13.10;99.90;;;;;;5086937;28;20226;-68
2022/05/13 00:38:56;;;;;;;7.93;2.37;;;13.10;99.90;;;;;;5091684;28;20064;-67
2022/05/13 00:41:22;;;;;;;5.03;2.30;;;13.10;99.90;;;;;;5082879;28;20036;-67
2022/05/13 00:43:52;;;;;;;5.50;2.15;;;13.10;99.90;;;;;;5084948;28;20039;-67
2022/05/13 00:46:20;;;;;;;4.22;2.83;;;13.10;99.90;;;;;;5081546;28;20031;-67
2022/05/13 00:48:47;;;;;;;6.55;2.92;;;13.10;99.90;;;;;;5088840;28;20035;-67
2022/05/13 00:51:17;;;;;;;10.18;2.92;;;13.10;99.90;;;;;;5088704;28;20051;-67
2022/05/13 00:53:45;;;;;;;6.40;2.08;;;13.10;99.90;;;;;;5083716;28;20400;-67
2022/05/13 00:56:11;;;;;;;5.65;2.40;;;13.10;99.90;;;;;;5081171;28;20127;-68
2022/05/13 00:58:40;;;;;;;10.97;2.60;;;13.10;99.90;;;;;;5087629;28;20103;-67
2022/05/13 01:01:07;;;;;;;4.45;2.20;;;13.10;99.90;;;;;;5062326;28;20377;-67
2022/05/13 01:03:34;;;;;;;6.38;2.38;;;13.10;99.90;;;;;;5080291;28;20092;-67
2022/05/13 01:06:04;;;;;;;5.22;2.33;;;13.10;99.90;;;;;;5085332;28;20404;-67
2022/05/13 01:08:32;;;;;;;9.98;2.30;;;13.10;99.90;;;;;;5082635;28;20477;-66
2022/05/13 01:11:00;;;;;;;11.40;2.72;;;13.10;99.90;;;;;;5060203;28;20047;-66
2022/05/13 01:13:29;;;;;;;6.82;2.45;;;13.10;99.90;;;;;;5076736;28;20116;-66
2022/05/13 01:15:55;;;;;;;8.13;2.10;;;13.10;99.90;;;;;;5067592;28;20024;-66
2022/05/13 01:18:33;;;;;;;8.05;2.58;;;13.10;99.90;;;;;;5048035;28;20484;-67
2022/05/13 01:21:00;;;;;;;7.47;2.35;;;13.10;99.90;;;;;;5078970;28;20442;-67
2022/05/13 01:23:30;;;;;;;7.40;2.30;;;13.10;99.90;;;;;;5079083;28;20036;-67
2022/05/13 01:26:01;;;;;;;8.25;2.22;;;13.10;99.90;;;;;;5080305;28;20504;-68
2022/05/13 01:28:29;;;;;;;5.57;2.00;;;13.10;99.90;;;;;;5061746;28;20067;-67
2022/05/13 01:30:57;;;;;;;8.35;2.45;;;13.10;99.90;;;;;;5083279;28;20450;-67
2022/05/13 01:33:25;;;;;;;11.35;2.00;;;13.10;99.90;;;;;;5086996;28;20466;-66
2022/05/13 01:35:54;;;;;;;8.48;2.13;;;13.10;99.90;;;;;;5085274;28;20552;-67
2022/05/13 01:38:23;;;;;;;10.57;2.78;;;13.10;99.90;;;;;;5082226;28;20073;-67
2022/05/13 01:40:50;;;;;;;19.70;2.67;;;13.10;99.90;;;;;;5055681;28;20089;-67
2022/05/13 01:43:16;;;;;;;7.63;2.90;;;13.10;99.90;;;;;;5082316;28;20035;-67
2022/05/13 01:45:42;;;;;;;10.55;2.85;;;13.10;99.90;;;;;;5083027;28;20036;-67
2022/05/13 01:48:09;;;;;;;9.13;2.10;;;13.10;99.90;;;;;;5082538;28;20040;-67
2022/05/13 01:50:36;;;;;;;7.30;2.35;;;13.10;99.90;;;;;;5082683;28;20609;-67
2022/05/13 01:53:03;;;;;;;8.30;2.70;;;13.10;99.90;;;;;;5079695;28;20042;-68
2022/05/13 01:55:29;;;;;;;7.53;2.60;;;13.10;99.90;;;;;;5077982;28;20203;-67
2022/05/13 01:57:55;;;;;;;8.90;2.13;;;13.10;99.90;;;;;;5080975;28;20664;-67
2022/05/13 02:00:22;;;;;;;12.20;3.20;;;13.10;99.90;;;;;;5082924;28;20040;-67
2022/05/13 02:05:32;;;;;;;13.13;2.50;;;13.10;99.90;;;;;;5080969;28;20366;-67
2022/05/13 02:08:00;;;;;;;11.23;2.30;;;13.10;99.90;;;;;;5080516;28;20131;-67
2022/05/13 02:10:26;;;;;;;9.77;3.00;;;13.10;99.90;;;;;;5063838;28;20186;-67
2022/05/13 02:12:51;;;;;;;10.17;2.10;;;13.10;99.90;;;;;;5079740;28;20115;-67
2022/05/13 02:15:17;;;;;;;9.13;2.63;;;13.10;99.90;;;;;;5082362;28;20040;-67
2022/05/13 02:20:18;;;;;;;12.27;2.80;;;13.20;99.90;;;;;;5061863;28;20057;-66
2022/05/13 02:22:44;;;;;;;7.25;2.25;;;13.10;99.90;;;;;;5061479;28;20055;-66
2022/05/13 02:25:11;;;;;;;7.78;2.13;;;13.20;99.90;;;;;;5051276;28;20033;-67
2022/05/13 02:27:36;;;;;;;7.90;2.78;;;13.20;99.90;;;;;;5044220;28;20036;-67
2022/05/13 02:30:04;;;;;;;10.30;1.73;;;13.10;99.90;;;;;;5061310;28;20493;-67
2022/05/13 02:32:29;;;;;;;12.05;2.58;;;13.10;99.90;;;;;;5056317;28;20082;-66
2022/05/13 02:34:55;;;;;;;12.43;2.47;;;13.20;99.90;;;;;;5048150;28;20423;-67
2022/05/13 02:37:21;;;;;;;15.20;3.10;;;13.20;99.90;;;;;;5065537;28;20030;-67
2022/05/13 02:39:46;;;;;;;12.55;2.58;;;13.10;99.90;;;;;;5061186;28;20036;-67
2022/05/13 02:42:12;;;;;;;9.43;2.97;;;13.20;99.90;;;;;;5058892;28;20480;-67
2022/05/13 02:44:38;;;;;;;9.63;2.27;;;13.20;99.90;;;;;;5046184;28;20052;-67
2022/05/13 02:47:03;;;;;;;8.40;2.23;;;13.10;99.90;;;;;;5051268;28;20864;-67
2022/05/13 02:49:29;;;;;;;7.35;2.95;;;13.10;99.90;;;;;;5055729;28;20033;-66
2022/05/13 02:51:54;;;;;;;8.80;2.33;;;13.10;99.90;;;;;;5059468;28;20432;-67
2022/05/13 02:54:21;;;;;;;14.87;2.83;;;13.10;99.90;;;;;;5059510;28;20072;-67
2022/05/13 02:56:46;;;;;;;12.98;2.53;;;13.10;99.90;;;;;;5067756;28;20032;-67
2022/05/13 02:59:12;;;;;;;8.57;2.37;;;13.10;99.90;;;;;;5060680;28;20103;-67
2022/05/13 03:01:37;;;;;;;10.00;2.63;;;13.10;99.90;;;;;;5052355;28;20111;-67
2022/05/13 03:04:04;;;;;;;6.85;2.78;;;13.10;99.90;;;;;;5057776;28;20066;-67
2022/05/13 03:06:30;;;;;;;7.57;2.05;;;13.10;99.90;;;;;;5047113;28;20051;-66
2022/05/13 03:08:55;;;;;;;5.68;2.03;;;13.10;99.90;;;;;;5058988;28;20059;-67
2022/05/13 03:11:21;;;;;;;6.20;2.05;;;13.10;99.90;;;;;;5052048;28;20084;-67
2022/05/13 03:13:48;;;;;;;11.23;2.40;;;13.10;99.90;;;;;;5058473;28;20057;-67
2022/05/13 03:16:19;;;;;;;7.80;2.85;;;13.10;99.90;;;;;;5060765;28;20268;-67
2022/05/13 03:18:52;;;;;;;5.55;1.85;;;13.10;99.90;;;;;;5061013;28;20093;-67
2022/05/13 03:21:18;;;;;;;9.90;1.85;;;13.10;99.90;;;;;;5052297;28;20044;-68
2022/05/13 03:23:51;;;;;;;8.50;2.40;;;13.10;99.90;;;;;;5062576;28;20032;-68
2022/05/13 03:26:19;;;;;;;7.38;2.17;;;13.10;99.90;;;;;;5052468;28;20036;-67
2022/05/13 03:28:44;;;;;;;7.80;2.33;;;13.10;99.90;;;;;;5057203;28;20498;-67
2022/05/13 03:31:10;;;;;;;9.82;2.28;;;13.10;99.90;;;;;;5057614;28;20036;-67
2022/05/13 03:33:36;;;;;;;12.35;2.70;;;13.10;99.90;;;;;;5059307;28;20143;-67
2022/05/13 03:36:02;;;;;;;9.38;2.20;;;13.10;99.90;;;;;;5069006;28;20055;-67
2022/05/13 03:38:28;;;;;;;10.27;2.88;;;13.10;99.90;;;;;;5063135;28;20251;-67
2022/05/13 03:40:53;;;;;;;9.70;3.07;;;13.10;99.90;;;;;;5034036;28;20084;-66
2022/05/13 03:43:19;;;;;;;8.70;2.30;;;13.10;99.90;;;;;;5059515;28;20464;-67
2022/05/13 03:45:45;;;;;;;5.13;2.20;;;13.10;99.90;;;;;;5043268;28;20075;-67
2022/05/13 03:48:11;;;;;;;11.40;2.33;;;13.10;99.90;;;;;;5062735;28;20124;-67
2022/05/13 03:50:39;;;;;;;13.27;2.80;;;13.10;99.90;;;;;;5034885;28;20131;-67
2022/05/13 03:53:05;;;;;;;8.93;2.67;;;13.10;99.90;;;;;;5044357;28;20565;-67
2022/05/13 03:55:33;;;;;;;11.13;2.42;;;13.10;99.90;;;;;;5038347;28;20198;-66
2022/05/13 03:57:59;;;;;;;11.05;2.33;;;13.10;99.90;;;;;;5042534;28;20824;-67
2022/05/13 04:00:25;;;;;;;8.10;2.20;;;13.10;99.90;;;;;;5033921;28;20271;-66
2022/05/13 04:02:50;;;;;;;9.40;2.25;;;13.20;99.90;;;;;;5061865;28;20431;-67
2022/05/13 04:10:44;;;;;;;9.48;1.90;;;13.10;99.90;;;;;;5056019;28;20076;-66
2022/05/13 04:16:06;;;;;;;10.68;2.25;;;13.10;99.90;;;;;;5042065;28;20040;-67
2022/05/13 04:18:35;;;;;;;14.25;2.40;;;13.10;99.90;;;;;;5063840;28;20040;-67
2022/05/13 04:21:04;;;;;;;4.97;1.60;;;13.10;99.90;;;;;;5047362;28;20052;-67
2022/05/13 04:23:30;;;;;;;7.82;2.60;;;13.10;99.90;;;;;;5064325;28;20493;-67
2022/05/13 04:25:56;;;;;;;8.77;2.25;;;13.10;99.90;;;;;;5054005;28;20037;-67
2022/05/13 04:28:21;;;;;;;4.03;1.53;;;13.10;99.90;;;;;;5052857;28;20171;-67
2022/05/13 04:30:47;;;;;;;7.63;2.27;;;13.10;99.90;;;;;;5040625;28;20045;-67
2022/05/13 04:33:14;;;;;;;5.57;1.73;;;13.10;99.90;;;;;;5057225;28;20602;-67
2022/05/13 04:35:40;;;;;;;6.65;1.35;;;13.10;99.90;;;;;;5058026;28;20086;-68
2022/05/13 04:38:06;;;;;;;4.38;1.35;;;13.10;99.90;;;;;;5020212;28;20067;-67
2022/05/13 04:40:32;;;;;;;8.02;1.70;;;13.20;99.90;;;;;;5038233;28;20120;-68
2022/05/13 04:42:58;;;;;;;9.63;1.63;;;13.10;99.90;;;;;;5052296;28;20032;-66
2022/05/13 04:45:27;;;;;;;4.88;1.70;;;13.10;99.90;;;;;;5051552;28;20489;-66
2022/05/13 04:50:46;;;;;;;5.05;1.20;;;13.10;99.90;;;;;;5058383;28;20061;-67
2022/05/13 04:53:12;;;;;;;4.55;1.30;;;13.10;99.90;;;;;;5058687;28;20103;-66
2022/05/13 04:55:40;;;;;;;5.72;1.45;;;13.10;99.90;;;;;;5045404;28;20438;-68
2022/05/13 04:58:05;;;;;;;3.97;1.45;;;13.10;99.90;;;;;;5038641;28;21282;-66
2022/05/13 05:00:31;;;;;;;6.82;1.88;;;13.10;99.90;;;;;;5016998;28;20366;-66
2022/05/13 05:02:56;;;;;;;5.60;1.27;;;13.10;99.90;;;;;;5052357;28;20495;-67
2022/05/13 05:05:23;;;;;;;5.47;1.73;;;13.20;99.90;;;;;;5067290;28;20275;-67
2022/05/13 05:07:49;;;;;;;3.08;1.27;;;13.10;99.90;;;;;;5061651;28;20068;-66
2022/05/13 05:10:14;;;;;;;2.83;1.30;;;13.20;99.90;;;;;;5063968;28;20075;-67
2022/05/13 05:12:40;;;;;;;2.95;1.08;;;13.10;99.90;;;;;;5065168;28;20396;-67
2022/05/13 05:15:07;;;;;;;4.43;1.55;;;13.20;99.90;;;;;;5061632;28;20108;-67
2022/05/13 05:17:33;;;;;;;3.88;1.58;;;13.20;99.90;;;;;;5062904;28;20408;-67
2022/05/13 05:19:59;;;;;;;4.17;1.30;;;13.20;99.90;;;;;;5068630;28;20029;-67
2022/05/13 05:22:25;;;;;;;4.77;1.27;;;13.30;99.90;;;;;;5062222;28;20121;-67
2022/05/13 05:24:50;;;;;;;5.63;1.20;;;13.30;99.90;;;;;;5061315;28;20126;-67
2022/05/13 05:27:18;;;;;;;2.67;1.20;;;13.30;99.90;;;;;;5063441;28;20386;-66
2022/05/13 05:29:46;;;;;;;2.90;1.13;;;13.30;99.90;;;;;;5062957;28;20040;-68
2022/05/13 05:32:14;;;;;;;6.72;1.13;;;13.30;99.90;;;;;;5044740;28;20379;-66
2022/05/13 05:34:40;;;;;;;4.88;1.40;;;13.30;99.90;;;;;;5061150;28;20110;-66
2022/05/13 05:37:06;;;;;;;2.75;1.00;;;13.30;99.90;;;;;;5058811;28;20037;-67
2022/05/13 05:39:31;;;;;;;8.55;0.90;;;13.30;99.90;;;;;;5040458;28;20208;-66
2022/05/13 05:41:57;;;;;;;4.87;1.53;;;13.30;99.90;;;;;;5053584;28;20044;-67
2022/05/13 05:44:23;;;;;;;2.83;1.17;;;13.40;99.90;;;;;;5036880;28;20040;-67
2022/05/13 05:46:48;;;;;;;3.20;1.07;;;13.40;99.90;;;;;;5054537;28;20829;-75
2022/05/13 05:49:14;;;;;;;1.87;1.00;;;13.40;99.90;;;;;;5034498;28;20286;-66
2022/05/13 05:51:39;;;;;;;3.80;1.20;;;13.40;99.90;;;;;;5064896;28;20041;-66
2022/05/13 05:59:48;;;;;;;6.45;1.63;;;13.50;99.90;;;;;;5027659;28;20032;-67
2022/05/13 06:02:14;;;;;;;2.53;0.85;;;13.50;99.90;;;;;;5027412;28;20048;-66
2022/05/13 06:04:40;;;;;;;7.82;1.70;;;13.50;99.90;;;;;;5058121;28;20044;-67
2022/05/13 06:07:09;;;;;;;4.28;1.42;;;13.50;99.90;;;;;;5066776;28;20058;-66
2022/05/13 06:09:35;;;;;;;4.90;1.13;;;13.50;99.90;;;;;;5040752;28;20575;-67
2022/05/13 06:12:01;;;;;;;2.60;0.73;;;13.60;99.90;;;;;;5045061;28;20068;-66
2022/05/13 06:14:27;;;;;;;3.00;1.23;;;13.60;99.90;;;;;;5057414;28;20125;-65
2022/05/13 06:16:55;;;;;;;4.10;1.27;;;13.60;99.90;;;;;;5054351;28;20322;-66
2022/05/13 06:19:21;;;;;;;5.13;1.67;;;13.60;99.90;;;;;;5060245;28;20129;-66
2022/05/13 06:21:46;;;;;;;3.37;1.03;;;13.60;99.90;;;;;;5060346;28;20047;-66
2022/05/13 06:24:12;;;;;;;6.30;1.33;;;13.60;99.90;;;;;;5054579;28;20709;-66
2022/05/13 06:26:40;;;;;;;5.20;1.23;;;13.60;99.90;;;;;;5044238;28;20041;-66
2022/05/13 06:29:06;;;;;;;3.83;1.25;;;13.60;99.90;;;;;;5058003;28;20049;-67
2022/05/13 06:31:32;;;;;;;4.25;1.00;;;13.60;99.90;;;;;;5029401;28;20345;-67
2022/05/13 06:33:58;;;;;;;3.85;1.02;;;13.60;99.90;;;;;;5058721;28;20048;-67
2022/05/13 06:36:24;;;;;;;2.90;1.07;;;13.60;99.90;;;;;;5053857;28;20048;-67
2022/05/13 06:38:49;;;;;;;5.33;0.80;;;13.60;99.90;;;;;;5059004;28;20286;-66
2022/05/13 06:41:15;;;;;;;3.20;1.40;;;13.70;99.90;;;;;;5029081;28;20088;-67
2022/05/13 06:43:41;;;;;;;6.90;0.90;;;13.70;99.90;;;;;;5040864;28;20521;-67
2022/05/13 06:46:07;;;;;;;3.80;0.83;;;13.70;99.90;;;;;;5058905;28;20270;-67
2022/05/13 06:48:32;;;;;;;3.80;1.97;;;13.70;99.90;;;;;;5060890;28;20091;-66
2022/05/13 06:51:00;;;;;;;7.30;1.17;;;13.80;99.90;;;;;;5066819;28;20040;-68
2022/05/13 06:53:25;;;;;;;4.85;1.50;;;13.80;99.90;;;;;;5063348;28;20051;-67
2022/05/13 06:55:51;;;;;;;8.53;1.87;;;13.80;99.90;;;;;;5045060;28;20037;-69
2022/05/13 06:58:17;;;;;;;5.05;1.35;;;13.90;99.90;;;;;;5044484;28;20194;-67
2022/05/13 07:00:44;;;;;;;2.55;1.27;;;13.80;99.90;;;;;;5060651;28;20410;-67
2022/05/13 07:03:18;;;;;;;3.45;1.08;;;13.90;99.90;;;;;;5064323;28;20051;-70
2022/05/13 07:05:44;;;;;;;3.28;1.48;;;13.90;99.90;;;;;;5062244;28;20059;-68
2022/05/13 07:08:11;;;;;;;4.55;1.02;;;13.90;99.90;;;;;;5062814;28;20032;-70
2022/05/13 07:10:39;;;;;;;4.15;1.52;;;13.90;99.90;;;;;;5048089;28;20033;-70
2022/05/13 07:13:06;;;;;;;4.80;1.50;;;14.00;99.90;;;;;;5016570;28;20049;-68
2022/05/13 07:15:33;;;;;;;4.25;1.10;;;14.00;99.90;;;;;;5054385;28;20069;-68
2022/05/13 07:17:59;;;;;;;4.13;0.98;;;14.00;99.90;;;;;;5044058;28;20066;-68
2022/05/13 07:20:28;;;;;;;2.72;0.93;;;14.10;99.90;;;;;;5025234;28;20497;-67
2022/05/13 07:22:56;;;;;;;4.10;0.93;;;14.10;99.90;;;;;;5051951;28;20196;-70
2022/05/13 07:25:23;;;;;;;5.55;1.23;;;14.10;99.90;;;;;;5024479;28;20508;-75
2022/05/13 07:27:48;;;;;;;8.13;0.88;;;14.10;99.90;;;;;;5033806;28;20158;-67
2022/05/13 07:30:15;;;;;;;3.90;1.05;;;14.10;99.90;;;;;;5047159;28;20032;-71
2022/05/13 07:32:40;;;;;;;;;;;14.00;99.90;;;;;;5038116;28;20075;-73
2022/05/13 07:35:08;;;;;;;3.22;1.02;;;14.10;99.90;;;;;;5026880;28;19956;-68
2022/05/13 07:37:35;;;;;;;7.57;1.00;;;14.20;99.90;;;;;;5053617;28;20131;-70
2022/05/13 07:42:45;;;;;;;4.05;1.23;;;14.40;99.90;;;;;;5040667;28;20045;-70
2022/05/13 07:45:11;;;;;;;5.70;1.33;;;14.40;99.90;;;;;;5052005;28;20106;-66
2022/05/13 07:47:39;;;;;;;2.80;1.05;;;14.40;99.90;;;;;;5045578;28;20047;-66
2022/05/13 07:50:07;;;;;;;2.53;0.70;;;14.50;99.90;;;;;;5040176;28;20139;-66
2022/05/13 07:52:32;;;;;;;4.95;1.05;;;14.50;99.90;;;;;;5040426;28;20048;-66
2022/05/13 07:54:58;;;;;;;4.63;1.00;;;14.50;99.90;;;;;;5048478;28;20495;-66
2022/05/13 07:57:23;;;;;;;6.90;1.23;;;14.50;99.90;;;;;;5062253;28;20040;-66
2022/05/13 08:02:33;;;;;;;4.03;1.13;;;14.50;99.90;;;;;;5049371;28;20295;-66
2022/05/13 08:04:59;;;;;;;5.07;1.50;;;14.50;99.90;;;;;;5058707;28;20094;-66
2022/05/13 08:07:25;;;;;;;3.87;1.23;;;14.40;99.90;;;;;;5063349;28;20489;-66
2022/05/13 08:09:50;;;;;;;7.75;1.40;;;14.40;99.90;;;;;;5061316;28;20033;-66
2022/05/13 08:12:16;;;;;;;4.57;1.07;;;14.40;99.90;;;;;;5048275;28;20037;-66
2022/05/13 08:14:42;;;;;;;4.65;1.35;;;14.40;99.90;;;;;;5060062;28;20139;-67
2022/05/13 08:17:08;;;;;;;5.90;1.63;;;14.50;99.90;;;;;;5041457;28;20127;-66
2022/05/13 08:19:33;;;;;;;3.85;1.45;;;14.50;99.90;;;;;;5082291;22;20040;-69
2022/05/13 08:21:59;;;;;;;3.73;1.30;;;14.50;99.90;;;;;;5078250;28;20471;-68
2022/05/13 08:24:25;;;;;;;3.20;1.60;;;14.50;99.90;;;;;;5079843;28;20297;-68
2022/05/13 08:26:51;;;;;;;4.82;1.27;;;14.50;99.90;;;;;;5089044;28;20032;-68
2022/05/13 08:29:16;;;;;;;2.37;0.77;;;14.50;99.90;;;;;;5071970;28;20040;-68
2022/05/13 08:31:42;;;;;;;5.68;1.30;;;14.50;99.90;;;;;;5070106;28;20569;-68
2022/05/13 08:34:09;;;;;;;9.52;1.20;;;14.50;99.90;;;;;;5069463;28;20029;-68
2022/05/13 08:36:34;;;;;;;2.90;1.00;;;14.60;99.90;;;;;;5079264;28;20047;-68
2022/05/13 08:39:00;;;;;;;3.42;1.08;;;14.70;99.90;;;;;;5084143;28;20040;-68
2022/05/13 08:41:49;;;;;;;7.57;1.25;;;14.90;99.90;;;;;;5081722;28;20040;-68
2022/05/13 08:44:15;;;;;;;4.72;1.10;;;15.00;99.90;;;;;;5085178;28;20040;-68
2022/05/13 08:47:06;;;;;;;3.92;1.15;;;15.10;99.90;;;;;;5085580;28;20051;-68
2022/05/13 08:49:37;;;;;;;3.95;1.08;;;15.20;99.90;;;;;;5066118;28;20032;-67
2022/05/13 08:55:24;;;;;;;4.25;1.40;;;15.30;99.90;;;;;;5045709;28;20052;-68
2022/05/13 08:57:50;;;;;;;2.92;1.05;;;15.50;99.90;;;;;;5083476;28;20460;-68
2022/05/13 09:00:28;;;;;;;2.42;1.10;;;15.60;99.90;;;;;;5079376;28;20545;-68
2022/05/13 09:03:07;;;;;;;5.30;1.10;;;15.60;99.90;;;;;;5086066;28;20055;-68
2022/05/13 09:05:41;;;;;;;3.83;0.90;;;15.60;99.90;;;;;;5080640;28;20446;-68
2022/05/13 09:08:08;;;;;;;6.20;0.88;;;15.50;99.90;;;;;;5083578;28;20039;-68
2022/05/13 09:11:06;;;;;;;4.03;1.15;;;15.60;99.90;;;;;;5077603;28;20035;-68
2022/05/13 09:13:41;;;;;;;3.35;1.13;;;15.50;99.90;;;;;;5062487;28;20040;-69
2022/05/13 09:16:09;;;;;;;5.45;1.85;;;15.50;99.90;;;;;;5083270;28;20408;-68
2022/05/13 09:19:04;;;;;;;7.68;1.10;;;15.50;99.90;;;;;;5077739;28;20036;-68
2022/05/13 09:21:30;;;;;;;3.72;1.13;;;15.50;99.90;;;;;;5080021;28;20054;-68
2022/05/13 09:23:56;;;;;;;7.32;1.48;;;15.50;99.90;;;;;;5056353;28;20067;-68
2022/05/13 09:26:24;;;;;;;6.22;1.83;;;15.40;99.90;;;;;;5079124;28;20064;-68
2022/05/13 09:29:10;;;;;;;2.45;0.82;;;15.50;99.90;;;;;;5076504;28;20518;-68
2022/05/13 09:32:02;;;;;;;4.32;1.48;;;15.40;99.90;;;;;;5046610;28;20043;-68
2022/05/13 09:34:39;;;;;;;4.38;1.80;;;15.40;99.90;;;;;;5080557;28;20032;-68
2022/05/13 09:37:17;;;;;;;7.65;1.80;;;15.50;99.90;;;;;;5075492;28;20097;-68
2022/05/13 09:39:45;;;;;;;3.38;1.25;;;15.60;99.90;;;;;;5073264;28;20504;-68
2022/05/13 09:42:21;;;;;;;4.32;1.10;;;15.70;99.90;;;;;;5069675;28;20074;-69
2022/05/13 09:44:47;;;;;;;2.92;1.27;;;15.70;99.90;;;;;;5073001;28;20055;-68
2022/05/13 09:47:24;;;;;;;;;;;15.60;99.90;;;;;;5084844;28;20032;-68
2022/05/13 09:49:50;;;;;;;5.30;1.33;;;15.70;99.90;;;;;;5083396;28;19927;-68
2022/05/13 09:52:18;;;;;;;;;;;15.80;99.90;;;;;;5075464;28;20045;-68
2022/05/13 09:54:46;;;;;;;;;;;15.80;99.90;;;;;;5075481;28;19919;-69
2022/05/13 09:57:20;;;;;;;3.78;1.48;;;16.00;99.90;;;;;;5076308;28;19928;-69
2022/05/13 09:59:58;;;;;;;3.47;1.75;;;16.00;99.90;;;;;;5075730;28;20584;-68
2022/05/13 10:02:37;;;;;;;4.72;1.25;;;16.20;99.90;;;;;;5069757;28;20063;-68
2022/05/13 10:05:24;;;;;;;6.72;1.40;;;16.20;99.90;;;;;;5082488;28;20031;-68
2022/05/13 10:07:49;;;;;;;3.90;1.13;;;16.20;99.90;;;;;;5076749;28;20055;-68
2022/05/13 10:16:04;;;;;;;5.10;1.00;;;16.00;99.90;;;;;;5079721;28;20040;-69
2022/05/13 10:18:32;;;;;;;4.13;1.17;;;16.00;99.90;;;;;;5072257;28;20554;-69
2022/05/13 10:21:15;;;;;;;5.20;1.67;;;16.10;99.90;;;;;;5073849;28;20068;-69
2022/05/13 10:23:54;;;;;;;5.30;1.13;;;16.20;99.90;;;;;;5072826;28;20073;-69
2022/05/13 10:26:24;;;;;;;8.40;1.42;;;16.40;99.90;;;;;;5075896;28;20044;-69
2022/05/13 10:29:04;;;;;;;3.65;0.90;;;16.40;99.90;;;;;;5081928;28;20127;-69
2022/05/13 10:31:35;;;;;;;6.57;1.38;;;16.50;99.90;;;;;;5085240;28;20358;-69
2022/05/13 10:34:07;;;;;;;3.60;1.00;;;16.60;99.90;;;;;;5076327;28;20584;-68
2022/05/13 10:36:47;;;;;;;3.35;0.90;;;16.60;99.90;;;;;;5079177;28;20080;-68
2022/05/13 10:39:36;;;;;;;5.10;0.93;;;16.70;99.90;;;;;;5067583;28;20385;-69
2022/05/13 10:42:09;;;;;;;4.15;0.88;;;16.80;99.90;;;;;;5061612;28;20044;-68
2022/05/13 10:44:52;;;;;;;5.03;0.68;;;16.80;99.90;;;;;;5072046;28;20044;-68
2022/05/13 10:47:30;;;;;;;2.58;0.80;;;16.70;99.90;;;;;;5083565;28;20051;-68
2022/05/13 10:49:55;;;;;;;6.55;1.02;;;16.60;99.90;;;;;;5078795;28;20024;-69
2022/05/13 10:52:44;;;;;;;2.85;1.02;;;16.50;99.90;;;;;;5069461;28;20046;-68
2022/05/13 10:55:14;;;;;;;4.10;0.88;;;16.50;99.90;;;;;;5061588;28;20039;-69
2022/05/13 10:57:52;;;;;;;4.35;1.27;;;16.30;99.90;;;;;;5070045;28;20043;-69
2022/05/13 11:00:30;;;;;;;5.65;1.00;;;16.30;99.90;;;;;;5087541;28;20071;-68
2022/05/13 11:03:14;;;;;;;4.60;1.45;;;16.20;99.90;;;;;;5068373;28;20148;-68
2022/05/13 11:05:40;;;;;;;4.65;1.15;;;16.30;99.90;;;;;;5062613;28;20561;-69
2022/05/13 11:08:23;;;;;;;2.70;0.90;;;16.30;99.90;;;;;;5085536;28;20530;-69
2022/05/13 11:11:01;;;;;;;6.03;1.27;;;16.40;99.90;;;;;;5054878;28;20730;-68
2022/05/13 11:13:48;;;;;;;4.05;1.17;;;16.60;99.90;;;;;;5067122;28;20485;-69
2022/05/13 11:16:25;;;;;;;2.58;0.82;;;16.80;99.90;;;;;;5076467;28;20055;-69
2022/05/13 11:19:00;;;;;;;4.85;0.90;;;17.10;99.90;;;;;;5086537;28;20120;-68
2022/05/13 11:21:50;;;;;;;3.25;0.95;;;17.20;99.90;;;;;;5080858;28;20396;-68
2022/05/13 11:27:29;;;;;;;2.72;0.77;;;17.30;99.90;;;;;;5061952;28;20052;-69
2022/05/13 11:30:13;;;;;;;3.25;1.13;;;17.40;97.90;;;;;;5053563;28;20040;-70
2022/05/13 11:33:17;;;;;;;9.98;1.27;;;17.30;96.70;;;;;;5074413;28;20059;-68
2022/05/13 11:35:54;;;;;;;4.60;1.05;;;17.30;97.70;;;;;;5076713;28;20391;-67
2022/05/13 11:38:37;;;;;;;3.63;0.88;;;17.10;97.80;;;;;;5066450;28;20040;-67
2022/05/13 11:41:11;;;;;;;5.35;0.95;;;17.00;96.40;;;;;;5051234;28;20118;-69
2022/05/13 11:43:48;;;;;;;3.70;0.80;;;16.90;97.60;;;;;;5032672;28;20040;-68
2022/05/13 11:46:45;;;;;;;2.03;1.02;;;16.70;99.00;;;;;;5076917;28;20051;-68
2022/05/13 11:49:31;;;;;;;5.70;1.17;;;16.60;99.90;;;;;;5066300;28;20031;-70
2022/05/13 11:52:12;;;;;;;5.40;1.30;;;16.60;99.90;;;;;;5058623;28;20044;-69
2022/05/13 11:54:42;;;;;;;7.43;0.95;;;16.60;99.90;;;;;;5066441;28;20040;-68
2022/05/13 11:57:16;;;;;;;4.50;1.33;;;16.70;99.90;;;;;;5073888;28;20142;-69
2022/05/13 11:59:45;;;;;;;3.25;1.00;;;16.80;99.90;;;;;;5078371;28;20131;-68
2022/05/13 12:02:32;;;;;;;5.03;1.27;;;16.80;99.90;;;;;;5073407;28;20036;-68
2022/05/13 12:05:23;;;;;;;5.45;1.30;;;16.80;99.90;;;;;;5076055;28;20058;-68
2022/05/13 12:08:01;;;;;;;2.95;1.10;;;16.70;99.90;;;;;;5076850;28;20611;-69
2022/05/13 12:10:48;;;;;;;4.80;1.33;;;16.70;99.90;;;;;;5073036;28;20048;-69
2022/05/13 12:13:25;;;;;;;6.68;1.60;;;16.70;99.90;;;;;;5068924;28;20035;-68
2022/05/13 12:16:09;;;;;;;8.63;2.00;;;16.90;99.90;;;;;;5067216;28;20131;-69
2022/05/13 12:18:37;;;;;;;6.93;2.10;;;17.10;99.90;;;;;;5047825;28;20044;-69
2022/05/13 12:21:09;;;;;;;9.82;1.52;;;17.20;99.90;;;;;;5038819;28;20090;-68
2022/05/13 12:23:44;;;;;;;5.45;1.83;;;17.30;99.90;;;;;;5064508;28;20053;-69
2022/05/13 12:26:11;;;;;;;3.95;1.60;;;17.50;99.90;;;;;;5070283;28;20145;-69
2022/05/13 12:28:55;;;;;;;3.42;1.15;;;17.50;99.90;;;;;;5076509;28;20071;-68
2022/05/13 12:31:46;;;;;;;6.05;1.90;;;17.30;99.90;;;;;;5061282;28;20436;-69
2022/05/13 12:40:07;;;;;;;4.38;1.33;;;16.90;99.90;;;;;;5061391;28;20372;-69
2022/05/13 12:42:47;;;;;;;3.50;0.90;;;16.90;99.90;;;;;;5071963;28;20036;-69
2022/05/13 12:45:28;;;;;;;3.85;1.30;;;17.20;99.90;;;;;;5053469;28;20043;-68
2022/05/13 12:47:56;;;;;;;5.20;1.05;;;17.30;99.30;;;;;;5079168;28;20036;-69
2022/05/13 12:50:51;;;;;;;4.00;1.38;;;17.60;98.20;;;;;;5076255;28;20036;-68
2022/05/13 12:53:29;;;;;;;3.13;0.80;;;17.80;92.20;;;;;;5052123;28;20701;-69
2022/05/13 12:56:20;;;;;;;4.38;1.00;;;17.70;90.80;;;;;;5074769;28;20400;-69
2022/05/13 12:59:11;;;;;;;5.60;1.13;;;17.70;92.40;;;;;;5076940;28;20404;-69
2022/05/13 13:01:41;;;;;;;4.43;1.73;;;17.70;94.30;;;;;;5076721;28;20040;-69
2022/05/13 13:04:08;;;;;;;5.85;1.30;;;17.60;92.80;;;;;;5073278;28;20467;-69
2022/05/13 13:06:46;;;;;;;3.03;1.00;;;17.50;92.80;;;;;;5063967;28;20086;-69
2022/05/13 13:09:31;;;;;;;3.42;1.02;;;17.40;94.60;;;;;;5082950;28;20540;-69
2022/05/13 13:12:33;;;;;;;4.72;1.52;;;17.40;93.40;;;;;;5077821;28;20028;-69
2022/05/13 13:15:13;;;;;;;6.53;1.58;;;17.40;93.90;;;;;;5074880;28;20480;-69
2022/05/13 13:17:54;;;;;;;4.18;1.63;;;17.50;93.30;;;;;;5052165;28;20040;-70
2022/05/13 13:20:21;;;;;;;7.13;1.48;;;17.50;94.20;;;;;;5062820;28;20175;-69
2022/05/13 13:23:00;;;;;;;5.72;1.48;;;17.30;93.40;;;;;;5076482;28;20093;-69
2022/05/13 13:25:36;;;;;;;5.00;1.00;;;17.20;94.50;;;;;;5080003;28;20103;-69
2022/05/13 13:28:27;;;;;;;3.75;1.23;;;17.20;93.20;;;;;;5084041;28;20046;-69
2022/05/13 13:31:04;;;;;;;2.35;1.05;;;17.30;96.20;;;;;;5043782;28;20428;-69
2022/05/13 13:33:33;;;;;;;7.53;1.50;;;17.50;95.20;;;;;;5064657;28;20040;-69
2022/05/13 13:36:15;;;;;;;5.78;1.25;;;17.60;95.00;;;;;;5084094;28;20032;-69
2022/05/13 13:38:47;;;;;;;4.78;1.40;;;17.70;95.90;;;;;;5049396;28;20036;-69
2022/05/13 13:41:24;;;;;;;4.88;1.08;;;17.70;95.20;;;;;;5079469;28;20119;-70
2022/05/13 13:43:55;;;;;;;5.15;1.00;;;17.70;90.50;;;;;;5087729;28;20043;-70
2022/05/13 13:46:27;;;;;;;7.70;1.75;;;17.60;93.40;;;;;;5086335;28;20050;-69
2022/05/13 13:48:56;;;;;;;5.68;1.10;;;17.70;93.40;;;;;;5085918;28;20084;-69
2022/05/13 13:51:27;;;;;;;4.40;1.40;;;17.70;93.20;;;;;;5081870;28;20043;-69